Time;durP1;ratioP1;P1;durP2;ratioP2;P2;SDS_P1;SDS_P2;PMS_P1;PMS_P2;Temp;Humidity;BMP_temperature;BMP_pressure;BME280_temperature;BME280_humidity;BME280_pressure;Samples;Min_cycle;Max_cycle;Signal;HPM_P1;HPM_P2
2020/12/29 00:01:16;;;;;;;12.90;7.60;;;3.00;89.90;;;;;;5053119;28;20112;-78
2020/12/29 00:03:42;;;;;;;12.50;7.73;;;3.00;90.00;;;;;;5052127;28;20041;-78
2020/12/29 00:06:08;;;;;;;9.13;5.73;;;3.10;90.00;;;;;;5053740;28;20033;-78
2020/12/29 00:08:33;;;;;;;11.53;7.07;;;3.10;89.80;;;;;;5045941;28;20043;-78
2020/12/29 00:10:59;;;;;;;13.60;6.63;;;3.20;89.80;;;;;;5052823;28;20054;-79
2020/12/29 00:13:24;;;;;;;11.87;7.90;;;3.10;89.80;;;;;;5061119;28;20041;-78
2020/12/29 00:15:50;;;;;;;10.67;7.33;;;3.10;89.90;;;;;;5052670;28;20028;-79
2020/12/29 00:18:15;;;;;;;10.57;6.77;;;3.10;90.00;;;;;;5065834;28;20051;-79
2020/12/29 00:20:41;;;;;;;13.83;7.97;;;3.20;90.00;;;;;;5051641;28;20439;-79
2020/12/29 00:23:07;;;;;;;8.43;6.10;;;3.20;90.00;;;;;;5030647;28;20024;-79
2020/12/29 00:25:32;;;;;;;10.40;7.27;;;3.20;90.00;;;;;;5048633;28;20032;-79
2020/12/29 00:27:58;;;;;;;10.40;7.30;;;3.20;89.80;;;;;;5053730;28;20028;-79
2020/12/29 00:30:23;;;;;;;13.63;8.40;;;3.20;89.90;;;;;;5059273;28;20033;-78
2020/12/29 00:32:49;;;;;;;12.77;8.43;;;3.30;90.00;;;;;;5039129;28;20060;-79
2020/12/29 00:35:15;;;;;;;12.07;8.50;;;3.40;89.80;;;;;;5038002;28;20029;-79
2020/12/29 00:37:40;;;;;;;11.23;7.73;;;3.50;89.60;;;;;;5052578;28;20070;-79
2020/12/29 00:40:06;;;;;;;14.67;9.37;;;3.60;89.40;;;;;;5060504;28;20059;-79
2020/12/29 00:42:33;;;;;;;12.97;8.70;;;3.60;89.20;;;;;;5052894;28;20039;-79
2020/12/29 00:44:58;;;;;;;14.20;7.50;;;3.70;89.20;;;;;;5054835;28;20070;-79
2020/12/29 00:47:24;;;;;;;11.17;7.40;;;3.80;89.00;;;;;;5053211;28;20029;-79
2020/12/29 00:49:49;;;;;;;15.60;10.10;;;3.80;88.80;;;;;;5068112;28;20038;-78
2020/12/29 00:52:16;;;;;;;12.83;7.50;;;3.90;88.70;;;;;;5035477;28;20450;-79
2020/12/29 00:54:42;;;;;;;12.63;8.63;;;4.00;88.50;;;;;;5054595;28;20056;-78
2020/12/29 00:57:07;;;;;;;11.73;7.20;;;4.10;88.50;;;;;;5069366;28;20067;-78
2020/12/29 00:59:33;;;;;;;12.33;6.53;;;4.10;88.40;;;;;;5050757;28;20028;-79
2020/12/29 01:01:59;;;;;;;8.00;5.57;;;4.10;87.90;;;;;;5061892;28;20033;-79
2020/12/29 01:04:24;;;;;;;8.07;5.43;;;4.10;87.80;;;;;;5045744;28;20120;-79
2020/12/29 01:06:50;;;;;;;8.10;6.33;;;4.10;88.10;;;;;;5051726;28;20075;-79
2020/12/29 01:09:16;;;;;;;9.93;6.70;;;4.10;87.50;;;;;;5031365;28;20036;-79
2020/12/29 01:11:42;;;;;;;8.27;4.87;;;4.10;87.50;;;;;;5053881;28;20115;-79
2020/12/29 01:14:08;;;;;;;7.53;4.90;;;4.00;86.90;;;;;;5056416;28;20020;-79
2020/12/29 01:16:34;;;;;;;7.63;5.27;;;3.90;87.00;;;;;;5073786;28;20033;-79
2020/12/29 01:19:00;;;;;;;6.27;5.00;;;3.80;86.90;;;;;;5072495;28;20028;-79
2020/12/29 01:21:25;;;;;;;7.87;4.87;;;3.80;87.00;;;;;;5080616;28;20377;-79
2020/12/29 01:23:51;;;;;;;7.03;4.40;;;3.80;87.00;;;;;;5055534;28;20162;-79
2020/12/29 01:26:26;;;;;;;8.50;6.17;;;3.70;87.10;;;;;;5047837;28;20112;-79
2020/12/29 01:28:53;;;;;;;7.97;4.67;;;3.60;87.40;;;;;;5065524;28;20033;-79
2020/12/29 01:31:32;;;;;;;7.37;5.30;;;3.60;87.40;;;;;;5067716;28;20055;-79
2020/12/29 01:33:59;;;;;;;7.50;4.67;;;3.60;87.40;;;;;;5070833;28;20150;-79
2020/12/29 01:36:26;;;;;;;7.97;4.97;;;3.50;87.50;;;;;;5054076;28;20037;-79
2020/12/29 01:38:53;;;;;;;5.73;3.70;;;3.50;87.60;;;;;;5062147;28;20945;-79
2020/12/29 01:41:20;;;;;;;7.00;4.93;;;3.50;87.60;;;;;;5073130;28;20054;-79
2020/12/29 01:43:47;;;;;;;6.87;4.30;;;3.50;87.70;;;;;;5055356;28;20023;-79
2020/12/29 01:46:12;;;;;;;4.83;3.77;;;3.40;87.70;;;;;;5069175;28;20357;-79
2020/12/29 01:48:38;;;;;;;7.83;4.47;;;3.30;87.70;;;;;;5056041;28;20043;-79
2020/12/29 01:51:04;;;;;;;7.10;4.87;;;3.30;87.90;;;;;;5051868;28;20201;-79
2020/12/29 01:53:30;;;;;;;8.30;4.90;;;3.20;88.10;;;;;;5073594;28;20039;-79
2020/12/29 01:55:55;;;;;;;7.17;4.10;;;3.20;88.20;;;;;;5076927;28;20127;-79
2020/12/29 01:58:21;;;;;;;6.20;3.90;;;3.10;88.10;;;;;;5072920;28;20060;-78
2020/12/29 02:00:47;;;;;;;7.53;4.00;;;3.00;88.10;;;;;;5072774;28;20123;-78
2020/12/29 02:03:17;;;;;;;7.50;4.10;;;2.90;88.20;;;;;;5074001;28;20021;-78
2020/12/29 02:05:47;;;;;;;7.70;4.27;;;2.90;88.40;;;;;;5064710;28;20044;-78
2020/12/29 02:08:14;;;;;;;6.50;4.33;;;3.00;88.40;;;;;;5072133;28;20035;-78
2020/12/29 02:10:44;;;;;;;8.83;4.57;;;3.10;88.20;;;;;;5070089;28;20071;-77
2020/12/29 02:13:10;;;;;;;5.53;4.53;;;3.20;88.10;;;;;;5055166;28;20028;-78
2020/12/29 02:15:36;;;;;;;7.13;3.63;;;3.30;88.00;;;;;;5054851;28;20044;-78
2020/12/29 02:18:02;;;;;;;6.73;4.10;;;3.30;87.50;;;;;;5054440;28;20025;-78
2020/12/29 02:20:27;;;;;;;5.00;4.00;;;3.40;87.40;;;;;;5070614;28;20044;-77
2020/12/29 02:22:54;;;;;;;6.20;4.00;;;3.30;87.30;;;;;;5056987;28;20037;-79
2020/12/29 02:25:19;;;;;;;6.47;4.83;;;3.30;87.40;;;;;;5037415;28;20076;-78
2020/12/29 02:27:50;;;;;;;6.63;4.50;;;3.30;87.40;;;;;;5045624;28;20396;-78
2020/12/29 02:30:17;;;;;;;9.53;4.40;;;3.30;87.70;;;;;;5070714;28;20094;-78
2020/12/29 02:32:42;;;;;;;6.00;4.70;;;3.30;88.20;;;;;;5051565;28;20132;-78
2020/12/29 02:35:10;;;;;;;6.87;4.67;;;3.30;88.00;;;;;;5037619;28;20476;-78
2020/12/29 02:37:36;;;;;;;8.10;4.50;;;3.30;87.90;;;;;;5072458;28;20475;-79
2020/12/29 02:40:02;;;;;;;7.57;4.30;;;3.30;87.90;;;;;;5071656;28;20029;-78
2020/12/29 02:42:28;;;;;;;5.57;4.00;;;3.20;87.80;;;;;;5055377;28;20044;-78
2020/12/29 02:44:53;;;;;;;5.60;4.50;;;3.20;87.90;;;;;;5066293;28;20063;-78
2020/12/29 02:47:19;;;;;;;9.73;4.47;;;3.20;87.90;;;;;;5041331;28;20469;-78
2020/12/29 02:49:44;;;;;;;9.00;5.23;;;3.30;88.00;;;;;;5052160;28;20078;-77
2020/12/29 02:52:10;;;;;;;7.30;3.97;;;3.20;88.10;;;;;;5051088;28;20471;-78
2020/12/29 02:54:36;;;;;;;6.60;4.70;;;3.30;88.10;;;;;;5072378;28;20477;-78
2020/12/29 02:57:01;;;;;;;5.77;4.27;;;3.30;88.10;;;;;;5058155;28;20029;-79
2020/12/29 02:59:27;;;;;;;6.03;4.07;;;3.30;87.90;;;;;;5047050;28;20035;-77
2020/12/29 03:01:53;;;;;;;7.00;4.00;;;3.20;87.20;;;;;;5082161;28;20034;-78
2020/12/29 03:04:19;;;;;;;8.57;4.00;;;3.20;87.40;;;;;;5071050;28;20469;-78
2020/12/29 03:06:45;;;;;;;9.13;3.53;;;3.10;87.10;;;;;;5065442;28;20056;-77
2020/12/29 03:09:11;;;;;;;7.47;4.20;;;3.00;86.80;;;;;;5063101;28;20043;-78
2020/12/29 03:11:38;;;;;;;6.53;4.63;;;3.00;87.10;;;;;;5069354;28;20050;-77
2020/12/29 03:14:06;;;;;;;7.03;4.30;;;3.00;87.80;;;;;;5053485;28;20024;-78
2020/12/29 03:16:32;;;;;;;10.33;4.43;;;2.90;87.70;;;;;;5049933;28;20127;-79
2020/12/29 03:18:58;;;;;;;6.40;4.20;;;2.90;87.80;;;;;;5056207;28;20111;-78
2020/12/29 03:21:23;;;;;;;6.20;4.00;;;2.80;87.90;;;;;;5068390;28;20043;-78
2020/12/29 03:23:49;;;;;;;6.50;3.73;;;2.70;88.00;;;;;;5071392;28;20036;-76
2020/12/29 03:26:18;;;;;;;5.83;4.27;;;2.60;88.10;;;;;;5069648;28;20064;-78
2020/12/29 03:28:44;;;;;;;5.80;3.97;;;2.60;88.40;;;;;;5051815;28;20601;-77
2020/12/29 03:31:10;;;;;;;8.07;3.83;;;2.60;88.60;;;;;;5067511;28;20045;-79
2020/12/29 03:33:36;;;;;;;5.57;3.30;;;2.60;88.60;;;;;;5048284;28;20203;-79
2020/12/29 03:36:02;;;;;;;4.13;3.37;;;2.50;88.60;;;;;;5034563;28;20100;-77
2020/12/29 03:38:28;;;;;;;5.77;4.13;;;2.50;88.60;;;;;;5070707;28;20081;-78
2020/12/29 03:40:54;;;;;;;6.70;4.37;;;2.50;89.00;;;;;;5069823;28;20028;-78
2020/12/29 03:43:21;;;;;;;6.63;3.70;;;2.50;89.20;;;;;;5071448;28;20495;-78
2020/12/29 03:45:48;;;;;;;5.77;3.80;;;2.40;89.20;;;;;;5069981;28;20079;-77
2020/12/29 03:48:16;;;;;;;8.73;4.50;;;2.30;89.20;;;;;;5052711;28;20052;-77
2020/12/29 03:50:42;;;;;;;5.63;3.70;;;2.30;89.50;;;;;;5055163;28;20119;-78
2020/12/29 03:53:08;;;;;;;6.57;4.60;;;2.40;89.90;;;;;;5059342;28;20303;-77
2020/12/29 03:55:35;;;;;;;6.07;3.87;;;2.40;90.00;;;;;;5060429;28;20392;-78
2020/12/29 03:58:01;;;;;;;5.00;3.30;;;2.40;90.00;;;;;;5067406;28;20032;-77
2020/12/29 04:00:26;;;;;;;8.87;4.03;;;2.30;89.90;;;;;;5069868;28;20115;-78
2020/12/29 04:02:52;;;;;;;10.20;4.13;;;2.20;89.80;;;;;;5036591;28;20792;-78
2020/12/29 04:05:18;;;;;;;8.83;4.30;;;2.20;90.00;;;;;;5053167;28;20507;-78
2020/12/29 04:07:45;;;;;;;5.70;3.90;;;2.10;90.00;;;;;;5069994;28;20025;-78
2020/12/29 04:10:11;;;;;;;6.07;4.17;;;2.10;90.10;;;;;;5066881;28;20640;-77
2020/12/29 04:12:38;;;;;;;6.43;3.47;;;2.10;90.20;;;;;;5063727;28;20032;-81
2020/12/29 04:15:05;;;;;;;7.23;4.60;;;2.20;90.30;;;;;;5055803;28;20035;-78
2020/12/29 04:17:38;;;;;;;7.63;4.00;;;2.20;90.50;;;;;;5069496;28;20024;-77
2020/12/29 04:20:06;;;;;;;6.63;4.10;;;2.20;90.30;;;;;;5068019;28;20078;-78
2020/12/29 04:22:33;;;;;;;7.17;4.03;;;2.20;90.40;;;;;;5068263;28;20025;-78
2020/12/29 04:24:59;;;;;;;5.43;4.30;;;2.30;90.40;;;;;;5068856;28;20056;-77
2020/12/29 04:27:25;;;;;;;7.90;4.70;;;2.30;90.40;;;;;;5068024;28;20486;-77
2020/12/29 04:29:51;;;;;;;6.17;4.17;;;2.30;90.60;;;;;;5064598;28;20137;-77
2020/12/29 04:32:18;;;;;;;5.77;3.87;;;2.30;90.60;;;;;;5038104;28;20127;-77
2020/12/29 04:34:47;;;;;;;5.73;3.60;;;2.20;90.40;;;;;;5054039;28;20063;-77
2020/12/29 04:37:16;;;;;;;7.33;3.87;;;2.20;90.40;;;;;;5069799;28;20028;-77
2020/12/29 04:39:43;;;;;;;5.07;3.97;;;2.10;90.30;;;;;;5061430;28;20117;-77
2020/12/29 04:42:13;;;;;;;6.43;3.77;;;2.00;90.30;;;;;;5056436;28;20579;-76
2020/12/29 04:44:40;;;;;;;5.83;4.00;;;1.90;90.30;;;;;;5051725;28;20052;-76
2020/12/29 04:47:12;;;;;;;9.70;4.40;;;1.80;90.40;;;;;;5069227;28;20029;-76
2020/12/29 04:49:39;;;;;;;5.88;4.13;;;1.80;90.40;;;;;;5069328;28;20033;-75
2020/12/29 04:52:06;;;;;;;5.77;4.10;;;1.80;90.40;;;;;;5056214;28;20056;-76
2020/12/29 04:54:35;;;;;;;5.97;4.30;;;1.80;90.40;;;;;;5033973;28;20050;-76
2020/12/29 04:57:04;;;;;;;7.37;5.00;;;1.80;90.40;;;;;;5069500;28;20056;-76
2020/12/29 04:59:30;;;;;;;6.47;4.93;;;1.90;90.50;;;;;;5067969;28;20034;-76
2020/12/29 05:01:59;;;;;;;7.07;4.90;;;1.90;90.70;;;;;;5051290;28;20112;-76
2020/12/29 05:04:25;;;;;;;6.03;4.97;;;1.90;90.60;;;;;;5069309;28;20127;-75
2020/12/29 05:06:51;;;;;;;8.87;4.93;;;1.90;90.70;;;;;;5067662;28;20056;-75
2020/12/29 05:09:21;;;;;;;8.40;5.20;;;1.80;90.40;;;;;;5062337;28;20043;-76
2020/12/29 05:11:47;;;;;;;8.00;5.10;;;1.80;90.50;;;;;;5068958;28;20063;-75
2020/12/29 05:14:13;;;;;;;8.47;4.87;;;1.80;90.50;;;;;;5066528;28;20500;-75
2020/12/29 05:16:42;;;;;;;9.27;5.83;;;1.80;90.40;;;;;;5050642;28;20052;-76
2020/12/29 05:19:09;;;;;;;6.93;6.10;;;1.80;90.40;;;;;;5049856;28;20025;-75
2020/12/29 05:21:37;;;;;;;13.83;7.40;;;1.80;90.50;;;;;;5066419;28;20043;-76
2020/12/29 05:24:17;;;;;;;9.30;6.07;;;1.90;90.60;;;;;;5067822;28;20025;-75
2020/12/29 05:26:44;;;;;;;6.87;5.10;;;1.90;90.50;;;;;;5067214;28;20025;-76
2020/12/29 05:29:12;;;;;;;8.83;5.67;;;1.90;90.60;;;;;;5068217;28;20078;-76
2020/12/29 05:31:42;;;;;;;8.53;6.10;;;1.90;90.50;;;;;;5069158;28;20035;-75
2020/12/29 05:34:16;;;;;;;9.27;5.90;;;1.90;90.50;;;;;;5067043;28;20025;-75
2020/12/29 05:36:44;;;;;;;8.00;5.60;;;1.90;90.60;;;;;;5067553;28;20119;-75
2020/12/29 05:39:11;;;;;;;10.07;5.70;;;1.90;90.60;;;;;;5067781;28;20028;-75
2020/12/29 05:41:44;;;;;;;8.80;6.17;;;1.90;90.60;;;;;;5067499;28;20041;-75
2020/12/29 05:44:21;;;;;;;11.57;5.82;;;1.90;90.60;;;;;;5052331;28;20063;-76
2020/12/29 05:46:47;;;;;;;8.47;5.97;;;1.90;90.60;;;;;;5034741;28;20043;-75
2020/12/29 05:49:12;;;;;;;8.80;6.60;;;1.90;90.60;;;;;;5068219;28;20108;-76
2020/12/29 05:51:42;;;;;;;9.17;5.80;;;1.90;90.60;;;;;;5066951;28;20045;-75
2020/12/29 05:54:09;;;;;;;15.87;6.77;;;1.80;90.50;;;;;;5067882;28;20025;-76
2020/12/29 05:56:35;;;;;;;9.30;5.90;;;1.70;90.40;;;;;;5065840;28;20396;-75
2020/12/29 05:59:03;;;;;;;11.80;6.23;;;1.60;90.40;;;;;;5053031;28;20029;-76
2020/12/29 06:01:48;;;;;;;9.17;5.97;;;1.50;90.60;;;;;;5077308;28;20029;-76
2020/12/29 06:04:14;;;;;;;7.93;5.97;;;1.50;90.50;;;;;;5047711;28;20157;-75
2020/12/29 06:06:44;;;;;;;9.70;6.47;;;1.40;90.40;;;;;;5073241;28;20064;-75
2020/12/29 06:09:14;;;;;;;13.93;7.70;;;1.40;90.60;;;;;;5060249;28;20100;-76
2020/12/29 06:12:02;;;;;;;14.50;8.37;;;1.40;90.70;;;;;;5078204;28;20029;-75
2020/12/29 06:14:28;;;;;;;16.23;8.37;;;1.40;90.70;;;;;;5071978;28;20036;-75
2020/12/29 06:16:55;;;;;;;14.33;7.83;;;1.50;90.70;;;;;;5073228;28;20127;-76
2020/12/29 06:19:26;;;;;;;13.70;9.00;;;1.50;90.70;;;;;;5037089;28;20048;-75
2020/12/29 06:22:12;;;;;;;12.53;8.57;;;1.60;90.80;;;;;;5070497;28;20040;-75
2020/12/29 06:24:43;;;;;;;11.83;7.60;;;1.60;90.80;;;;;;5071719;28;20021;-76
2020/12/29 06:27:12;;;;;;;10.73;7.23;;;1.60;90.80;;;;;;5072029;28;20025;-76
2020/12/29 06:29:41;;;;;;;11.60;6.97;;;1.60;90.90;;;;;;5050220;28;20028;-76
2020/12/29 06:32:11;;;;;;;9.33;6.97;;;1.60;90.80;;;;;;5063226;28;20094;-77
2020/12/29 06:34:37;;;;;;;9.40;7.30;;;1.60;90.70;;;;;;5054446;28;20059;-76
2020/12/29 06:37:12;;;;;;;12.13;7.33;;;1.60;90.70;;;;;;5057319;28;20423;-75
2020/12/29 06:39:42;;;;;;;11.43;7.70;;;1.70;90.70;;;;;;5069161;28;20032;-76
2020/12/29 06:42:09;;;;;;;10.07;7.13;;;1.80;90.80;;;;;;5070055;28;20025;-76
2020/12/29 06:44:34;;;;;;;9.77;7.97;;;1.70;90.60;;;;;;5071706;28;20026;-76
2020/12/29 06:47:10;;;;;;;11.67;7.80;;;1.80;90.70;;;;;;5070479;28;20029;-76
2020/12/29 06:49:42;;;;;;;11.07;7.30;;;1.80;90.80;;;;;;5069683;28;20115;-75
2020/12/29 06:52:18;;;;;;;9.65;7.22;;;1.90;90.80;;;;;;5056998;28;20421;-76
2020/12/29 06:54:51;;;;;;;11.00;7.53;;;1.90;90.80;;;;;;5054192;28;20051;-76
2020/12/29 06:57:17;;;;;;;9.30;7.03;;;2.00;90.70;;;;;;5067798;28;20124;-75
2020/12/29 06:59:42;;;;;;;10.27;7.07;;;2.00;90.70;;;;;;5067441;28;20108;-75
2020/12/29 07:02:19;;;;;;;10.67;7.67;;;2.00;90.70;;;;;;5053293;28;20024;-76
2020/12/29 07:04:52;;;;;;;9.40;7.57;;;2.00;90.70;;;;;;5071452;28;20032;-76
2020/12/29 07:07:28;;;;;;;11.82;6.97;;;1.90;90.70;;;;;;5067719;28;20098;-76
2020/12/29 07:10:10;;;;;;;11.67;6.40;;;1.90;90.70;;;;;;5070922;28;20036;-76
2020/12/29 07:12:36;;;;;;;8.27;6.60;;;2.00;90.80;;;;;;5070787;28;20485;-77
2020/12/29 07:15:04;;;;;;;10.20;7.00;;;1.90;90.70;;;;;;5050649;28;20116;-79
2020/12/29 07:17:31;;;;;;;11.20;7.33;;;2.00;90.70;;;;;;5071154;28;20035;-76
2020/12/29 07:19:57;;;;;;;12.10;7.80;;;1.90;90.70;;;;;;5052346;28;20032;-76
2020/12/29 07:22:24;;;;;;;10.00;7.57;;;2.00;90.80;;;;;;5067519;28;20921;-76
2020/12/29 07:24:50;;;;;;;11.80;7.53;;;2.00;90.70;;;;;;5067084;28;20025;-77
2020/12/29 07:27:20;;;;;;;14.20;7.83;;;2.00;90.70;;;;;;5066692;28;20040;-76
2020/12/29 07:29:57;;;;;;;10.20;7.50;;;2.10;90.80;;;;;;5038226;28;20024;-77
2020/12/29 07:32:23;;;;;;;12.53;7.87;;;2.20;90.90;;;;;;5051543;28;20049;-77
2020/12/29 07:34:49;;;;;;;12.40;8.23;;;2.30;91.00;;;;;;5064201;28;20056;-77
2020/12/29 07:37:34;;;;;;;10.27;7.87;;;2.40;90.90;;;;;;5045327;28;20043;-76
2020/12/29 07:39:59;;;;;;;13.27;8.73;;;2.50;90.90;;;;;;5015519;28;20040;-76
2020/12/29 07:42:25;;;;;;;13.07;9.20;;;2.50;90.90;;;;;;5042609;28;21700;-76
2020/12/29 07:44:50;;;;;;;13.77;9.03;;;2.60;90.90;;;;;;5061274;28;20434;-76
2020/12/29 07:47:16;;;;;;;11.87;9.00;;;2.60;90.90;;;;;;5027229;28;20024;-77
2020/12/29 07:49:42;;;;;;;13.10;9.23;;;2.70;90.90;;;;;;5045533;28;20024;-76
2020/12/29 07:52:07;;;;;;;14.07;9.50;;;2.70;90.70;;;;;;5045244;28;20131;-77
2020/12/29 07:54:34;;;;;;;14.77;10.40;;;2.70;90.70;;;;;;5060318;28;20040;-77
2020/12/29 07:57:00;;;;;;;16.37;10.37;;;2.70;90.50;;;;;;5042903;28;20530;-76
2020/12/29 07:59:25;;;;;;;18.00;11.43;;;2.60;90.30;;;;;;5039356;28;20025;-77
2020/12/29 08:01:55;;;;;;;16.13;11.00;;;2.50;90.40;;;;;;5039609;28;20036;-76
2020/12/29 08:04:29;;;;;;;16.40;11.00;;;2.60;90.70;;;;;;5044002;28;20044;-76
2020/12/29 08:06:56;;;;;;;16.93;11.03;;;2.70;91.00;;;;;;5044340;28;20040;-76
2020/12/29 08:09:21;;;;;;;20.10;12.27;;;2.90;91.10;;;;;;5042086;28;20071;-76
2020/12/29 08:11:47;;;;;;;15.37;10.60;;;3.00;91.00;;;;;;5043130;28;20115;-77
2020/12/29 08:14:13;;;;;;;16.70;10.77;;;3.20;91.00;;;;;;5050523;28;20028;-76
2020/12/29 08:16:39;;;;;;;18.83;10.83;;;3.20;90.90;;;;;;5031074;28;20036;-76
2020/12/29 08:19:09;;;;;;;15.17;10.80;;;3.20;90.80;;;;;;5063168;28;20037;-77
2020/12/29 08:21:35;;;;;;;18.13;11.43;;;3.20;90.60;;;;;;5042964;28;20040;-77
2020/12/29 08:24:01;;;;;;;17.83;10.43;;;3.20;90.70;;;;;;5060140;28;20464;-76
2020/12/29 08:26:27;;;;;;;17.87;12.17;;;3.20;90.80;;;;;;5041931;28;20038;-77
2020/12/29 08:28:53;;;;;;;20.97;11.80;;;3.20;90.60;;;;;;5043526;28;20115;-77
2020/12/29 08:31:20;;;;;;;21.00;12.30;;;3.30;90.80;;;;;;5039338;28;20060;-77
2020/12/29 08:33:49;;;;;;;17.20;11.83;;;3.30;90.80;;;;;;5045031;28;20111;-77
2020/12/29 08:36:23;;;;;;;20.63;12.87;;;3.40;91.00;;;;;;5028187;28;20086;-77
2020/12/29 08:39:07;;;;;;;25.57;13.90;;;3.40;91.00;;;;;;5062165;28;20039;-78
2020/12/29 08:41:43;;;;;;;24.73;14.37;;;3.50;90.90;;;;;;5077808;28;20113;-78
2020/12/29 08:44:11;;;;;;;22.13;13.97;;;3.50;90.80;;;;;;5064346;28;20028;-77
2020/12/29 08:46:36;;;;;;;24.77;15.43;;;3.50;90.60;;;;;;5065623;28;20029;-78
2020/12/29 08:49:06;;;;;;;21.63;13.87;;;3.60;90.60;;;;;;5043935;28;20028;-78
2020/12/29 08:51:37;;;;;;;26.00;15.37;;;3.70;90.50;;;;;;5050872;28;20053;-77
2020/12/29 08:54:12;;;;;;;24.00;14.93;;;3.70;90.50;;;;;;5068613;28;20028;-78
2020/12/29 08:56:38;;;;;;;27.30;16.60;;;3.80;90.50;;;;;;5065777;28;20047;-78
2020/12/29 08:59:22;;;;;;;27.03;15.07;;;3.80;90.20;;;;;;5052968;28;20103;-77
2020/12/29 09:02:00;;;;;;;30.53;18.83;;;3.70;90.10;;;;;;5045833;28;20036;-77
2020/12/29 09:04:40;;;;;;;30.50;18.40;;;3.70;90.30;;;;;;5041523;28;20043;-78
2020/12/29 09:07:06;;;;;;;23.77;13.60;;;3.90;90.30;;;;;;5052517;28;20344;-78
2020/12/29 09:09:37;;;;;;;27.43;16.77;;;3.90;90.10;;;;;;5051992;28;20020;-78
2020/12/29 09:12:12;;;;;;;26.13;15.03;;;3.90;89.90;;;;;;5069768;28;20040;-77
2020/12/29 09:14:58;;;;;;;28.87;16.00;;;3.90;89.60;;;;;;5066402;28;20503;-78
2020/12/29 09:17:27;;;;;;;32.93;19.67;;;4.00;89.60;;;;;;5051194;28;20040;-77
2020/12/29 09:20:13;;;;;;;33.67;20.00;;;4.00;89.50;;;;;;5069357;28;20040;-77
2020/12/29 09:22:52;;;;;;;31.63;18.87;;;4.10;89.70;;;;;;5064667;28;20037;-77
2020/12/29 09:25:22;;;;;;;25.47;16.97;;;4.20;89.50;;;;;;5051480;28;20147;-77
2020/12/29 09:27:48;;;;;;;30.53;16.47;;;4.20;89.10;;;;;;5047445;28;20434;-77
2020/12/29 09:30:14;;;;;;;33.63;18.40;;;4.20;88.90;;;;;;5050894;28;20029;-77
2020/12/29 09:32:40;;;;;;;30.00;19.20;;;4.20;89.00;;;;;;5055016;28;20033;-77
2020/12/29 09:37:55;;;;;;;27.17;17.07;;;4.30;89.20;;;;;;5065134;28;20101;-78
2020/12/29 09:40:22;;;;;;;41.23;22.23;;;4.40;88.90;;;;;;5054137;28;20032;-78
2020/12/29 09:42:48;;;;;;;33.90;19.40;;;4.40;88.90;;;;;;5048489;28;20024;-78
2020/12/29 09:45:21;;;;;;;31.37;18.57;;;4.40;88.60;;;;;;5071031;28;20032;-77
2020/12/29 09:47:48;;;;;;;43.80;25.10;;;4.20;88.20;;;;;;5070899;28;20449;-77
2020/12/29 09:50:14;;;;;;;41.93;26.37;;;4.20;88.70;;;;;;5071159;28;20028;-77
2020/12/29 09:52:39;;;;;;;42.30;24.97;;;4.20;88.80;;;;;;5044488;28;20050;-76
2020/12/29 09:55:06;;;;;;;42.73;25.07;;;4.20;89.10;;;;;;5064520;28;20024;-77
2020/12/29 09:57:31;;;;;;;39.97;26.03;;;4.30;89.10;;;;;;5068678;28;20036;-77
2020/12/29 09:59:57;;;;;;;43.27;25.80;;;4.30;89.00;;;;;;5054442;28;20035;-77
2020/12/29 10:02:23;;;;;;;44.83;26.10;;;4.30;89.00;;;;;;5042050;28;20376;-77
2020/12/29 10:04:49;;;;;;;44.43;25.67;;;4.40;89.20;;;;;;5065270;28;20499;-77
2020/12/29 10:07:15;;;;;;;49.43;28.73;;;4.40;89.00;;;;;;5061236;28;20033;-78
2020/12/29 10:09:41;;;;;;;48.80;27.60;;;4.30;88.80;;;;;;5070314;28;20453;-79
2020/12/29 10:12:06;;;;;;;48.27;27.40;;;4.40;89.10;;;;;;5047297;28;20024;-79
2020/12/29 10:14:32;;;;;;;45.30;27.33;;;4.40;89.00;;;;;;5066698;28;20033;-78
2020/12/29 10:16:58;;;;;;;44.23;27.33;;;4.40;89.10;;;;;;5037927;28;20093;-78
2020/12/29 10:19:23;;;;;;;50.20;28.27;;;4.30;89.10;;;;;;5070521;28;20504;-79
2020/12/29 10:21:53;;;;;;;46.50;27.47;;;4.40;89.30;;;;;;5070822;28;20040;-78
2020/12/29 10:24:19;;;;;;;52.47;30.80;;;4.40;89.30;;;;;;5034286;28;20044;-78
2020/12/29 10:26:49;;;;;;;48.23;28.17;;;4.50;89.40;;;;;;5039631;28;20021;-79
2020/12/29 10:29:14;;;;;;;48.80;28.10;;;4.60;89.30;;;;;;5064135;28;20033;-79
2020/12/29 10:31:40;;;;;;;54.10;31.37;;;4.60;89.20;;;;;;5056043;28;20040;-80
2020/12/29 10:34:06;;;;;;;53.10;30.60;;;4.60;89.20;;;;;;5036699;28;20040;-79
2020/12/29 10:36:35;;;;;;;55.67;30.40;;;4.60;89.20;;;;;;5068570;28;20055;-77
2020/12/29 10:39:03;;;;;;;49.17;28.57;;;4.70;89.30;;;;;;5051237;28;20104;-79
2020/12/29 10:41:30;;;;;;;49.43;29.47;;;4.70;89.10;;;;;;5067597;28;20031;-78
2020/12/29 10:43:56;;;;;;;50.80;28.97;;;4.70;89.00;;;;;;5068984;28;20032;-78
2020/12/29 10:46:22;;;;;;;47.63;30.00;;;4.80;89.00;;;;;;5072381;28;20031;-79
2020/12/29 10:48:48;;;;;;;46.07;29.07;;;4.80;89.00;;;;;;5071065;28;20531;-77
2020/12/29 10:51:19;;;;;;;52.23;29.03;;;4.80;88.90;;;;;;5067657;28;20040;-77
2020/12/29 10:53:44;;;;;;;50.10;30.93;;;4.80;88.90;;;;;;5062915;28;20060;-78
2020/12/29 10:56:10;;;;;;;45.80;29.20;;;4.90;89.00;;;;;;5071562;28;20059;-78
2020/12/29 10:58:37;;;;;;;47.23;28.43;;;4.90;88.90;;;;;;5037392;28;20029;-80
2020/12/29 11:01:04;;;;;;;47.63;27.73;;;5.00;88.70;;;;;;5060065;28;20430;-80
2020/12/29 11:03:30;;;;;;;48.33;28.60;;;5.10;88.60;;;;;;5071585;28;20998;-80
2020/12/29 11:05:55;;;;;;;44.13;28.07;;;5.20;88.40;;;;;;5065782;28;20039;-80
2020/12/29 11:08:21;;;;;;;43.67;26.83;;;5.30;88.30;;;;;;5039049;28;20365;-80
2020/12/29 11:10:49;;;;;;;46.03;27.70;;;5.40;88.10;;;;;;5037065;28;20388;-78
2020/12/29 11:13:15;;;;;;;39.70;26.40;;;5.60;87.90;;;;;;5055019;28;20047;-79
2020/12/29 11:15:40;;;;;;;39.33;25.33;;;5.70;87.50;;;;;;5042521;28;20032;-78
2020/12/29 11:18:06;;;;;;;35.87;24.10;;;5.70;86.90;;;;;;5061850;28;20473;-77
2020/12/29 11:20:32;;;;;;;40.37;24.67;;;5.70;86.50;;;;;;5055588;28;20043;-78
2020/12/29 11:22:57;;;;;;;37.53;24.07;;;5.70;86.60;;;;;;5055910;28;20032;-77
2020/12/29 11:25:23;;;;;;;40.07;24.60;;;5.70;87.20;;;;;;5055341;28;20126;-79
2020/12/29 11:27:48;;;;;;;35.10;23.43;;;5.80;87.00;;;;;;5057858;28;20029;-80
2020/12/29 11:30:14;;;;;;;39.20;23.93;;;5.80;86.80;;;;;;5058492;28;20052;-76
2020/12/29 11:32:40;;;;;;;36.37;23.33;;;5.80;86.50;;;;;;5054276;28;20032;-78
2020/12/29 11:35:05;;;;;;;32.37;22.00;;;5.80;86.50;;;;;;5037748;28;20045;-78
2020/12/29 11:37:31;;;;;;;38.67;23.63;;;5.90;85.90;;;;;;5068800;28;20068;-78
2020/12/29 11:39:57;;;;;;;35.23;22.73;;;5.80;86.10;;;;;;5042717;28;20028;-80
2020/12/29 11:42:22;;;;;;;33.50;22.10;;;5.80;86.10;;;;;;5036548;28;20040;-79
2020/12/29 11:44:48;;;;;;;31.63;19.93;;;5.80;86.20;;;;;;5047376;28;20028;-78
2020/12/29 11:47:13;;;;;;;31.53;19.93;;;5.80;86.20;;;;;;5067847;28;20134;-77
2020/12/29 11:49:39;;;;;;;30.97;19.57;;;5.80;86.10;;;;;;5045112;28;20428;-78
2020/12/29 11:52:05;;;;;;;30.60;20.30;;;5.80;85.90;;;;;;5071206;28;20139;-79
2020/12/29 11:54:30;;;;;;;35.07;21.17;;;5.80;86.00;;;;;;5063023;28;20055;-78
2020/12/29 11:56:56;;;;;;;32.17;19.80;;;5.70;85.90;;;;;;5070026;28;20079;-80
2020/12/29 11:59:21;;;;;;;33.83;20.80;;;5.70;86.00;;;;;;5065343;28;20028;-79
2020/12/29 12:01:47;;;;;;;32.30;20.43;;;5.70;86.20;;;;;;5069649;28;20032;-78
2020/12/29 12:04:13;;;;;;;32.33;19.83;;;5.70;86.20;;;;;;5067763;28;20132;-77
2020/12/29 12:06:38;;;;;;;27.03;18.47;;;5.80;86.30;;;;;;5032765;28;20087;-78
2020/12/29 12:09:05;;;;;;;31.10;19.73;;;5.80;86.40;;;;;;5041826;28;20477;-79
2020/12/29 12:11:30;;;;;;;29.80;18.47;;;5.90;86.50;;;;;;5067133;28;20036;-79
2020/12/29 12:13:57;;;;;;;29.53;19.03;;;5.80;86.40;;;;;;5063489;28;20032;-80
2020/12/29 12:16:24;;;;;;;27.03;16.57;;;5.90;86.30;;;;;;5061437;28;20029;-79
2020/12/29 12:18:50;;;;;;;30.40;18.03;;;5.80;86.40;;;;;;5071007;28;20032;-79
2020/12/29 12:21:15;;;;;;;27.50;17.60;;;5.90;86.60;;;;;;5051588;28;20033;-77
2020/12/29 12:23:41;;;;;;;25.20;16.20;;;6.00;86.60;;;;;;5066963;28;20361;-78
2020/12/29 12:26:07;;;;;;;24.57;16.63;;;6.00;86.20;;;;;;5041039;28;20468;-79
2020/12/29 12:28:33;;;;;;;26.20;15.43;;;6.00;86.40;;;;;;5059169;28;20029;-79
2020/12/29 12:30:59;;;;;;;25.50;15.53;;;6.00;86.20;;;;;;5034873;28;20078;-79
2020/12/29 12:33:25;;;;;;;26.53;15.67;;;6.00;86.10;;;;;;5052166;28;20033;-79
2020/12/29 12:35:51;;;;;;;24.37;15.73;;;5.90;85.90;;;;;;5038939;28;20119;-78
2020/12/29 12:38:16;;;;;;;28.03;15.90;;;5.90;85.70;;;;;;5062553;28;20025;-77
2020/12/29 12:40:42;;;;;;;23.87;14.83;;;5.80;85.90;;;;;;5069620;28;20037;-79
2020/12/29 12:43:08;;;;;;;24.33;15.07;;;5.80;86.00;;;;;;5052953;28;20464;-79
2020/12/29 12:45:33;;;;;;;25.43;15.03;;;5.80;86.10;;;;;;5053720;28;20028;-78
2020/12/29 12:47:59;;;;;;;22.60;14.97;;;5.80;85.90;;;;;;5057148;28;20029;-78
2020/12/29 12:50:25;;;;;;;23.43;15.03;;;5.80;86.20;;;;;;5053368;28;20052;-80
2020/12/29 12:52:50;;;;;;;28.10;15.60;;;5.70;86.10;;;;;;5053043;28;20056;-80